sensor_id;sensor_type;location;lat;lon;timestamp;P1;durP1;ratioP1;P2;durP2;ratioP2
23588;SDS011;11972;48.078;11.876;2022-12-18T00:00:21;39.33;;;18.60;;
23588;SDS011;11972;48.078;11.876;2022-12-18T00:04:22;34.90;;;18.83;;
23588;SDS011;11972;48.078;11.876;2022-12-18T00:08:24;38.15;;;18.67;;
23588;SDS011;11972;48.078;11.876;2022-12-18T00:12:24;37.80;;;19.70;;
23588;SDS011;11972;48.078;11.876;2022-12-18T00:16:25;46.72;;;21.58;;
23588;SDS011;11972;48.078;11.876;2022-12-18T00:20:26;42.25;;;22.00;;
23588;SDS011;11972;48.078;11.876;2022-12-18T00:24:26;49.15;;;22.30;;
23588;SDS011;11972;48.078;11.876;2022-12-18T00:28:27;42.13;;;21.60;;
23588;SDS011;11972;48.078;11.876;2022-12-18T00:32:27;49.85;;;22.98;;
23588;SDS011;11972;48.078;11.876;2022-12-18T00:36:29;44.75;;;22.33;;
23588;SDS011;11972;48.078;11.876;2022-12-18T00:40:31;42.20;;;21.23;;
23588;SDS011;11972;48.078;11.876;2022-12-18T00:44:31;66.60;;;27.40;;
23588;SDS011;11972;48.078;11.876;2022-12-18T00:48:32;53.38;;;23.20;;
23588;SDS011;11972;48.078;11.876;2022-12-18T00:52:32;47.20;;;22.95;;
23588;SDS011;11972;48.078;11.876;2022-12-18T00:56:34;45.95;;;22.25;;
23588;SDS011;11972;48.078;11.876;2022-12-18T01:00:36;45.17;;;22.80;;
23588;SDS011;11972;48.078;11.876;2022-12-18T01:04:37;50.85;;;22.90;;
23588;SDS011;11972;48.078;11.876;2022-12-18T01:08:38;53.35;;;25.05;;
23588;SDS011;11972;48.078;11.876;2022-12-18T01:12:39;47.05;;;23.30;;
23588;SDS011;11972;48.078;11.876;2022-12-18T01:16:39;44.10;;;22.05;;
23588;SDS011;11972;48.078;11.876;2022-12-18T01:20:39;40.65;;;22.08;;
23588;SDS011;11972;48.078;11.876;2022-12-18T01:24:40;43.05;;;22.73;;
23588;SDS011;11972;48.078;11.876;2022-12-18T01:28:43;40.85;;;21.48;;
23588;SDS011;11972;48.078;11.876;2022-12-18T01:32:44;43.13;;;20.73;;
23588;SDS011;11972;48.078;11.876;2022-12-18T01:36:44;41.53;;;21.50;;
23588;SDS011;11972;48.078;11.876;2022-12-18T01:40:44;44.63;;;22.13;;
23588;SDS011;11972;48.078;11.876;2022-12-18T01:49:01;44.35;;;21.08;;
23588;SDS011;11972;48.078;11.876;2022-12-18T01:53:04;44.30;;;21.33;;
23588;SDS011;11972;48.078;11.876;2022-12-18T01:57:07;43.42;;;22.15;;
23588;SDS011;11972;48.078;11.876;2022-12-18T02:01:08;47.60;;;22.70;;
23588;SDS011;11972;48.078;11.876;2022-12-18T02:05:09;41.17;;;21.63;;
23588;SDS011;11972;48.078;11.876;2022-12-18T02:09:13;40.50;;;21.52;;
23588;SDS011;11972;48.078;11.876;2022-12-18T02:13:20;40.85;;;21.08;;
23588;SDS011;11972;48.078;11.876;2022-12-18T02:17:29;44.42;;;22.23;;
23588;SDS011;11972;48.078;11.876;2022-12-18T02:22:06;45.05;;;22.65;;
23588;SDS011;11972;48.078;11.876;2022-12-18T02:26:27;48.40;;;22.90;;
23588;SDS011;11972;48.078;11.876;2022-12-18T02:30:31;48.10;;;20.88;;
23588;SDS011;11972;48.078;11.876;2022-12-18T02:34:36;43.80;;;22.40;;
23588;SDS011;11972;48.078;11.876;2022-12-18T02:38:39;39.50;;;20.92;;
23588;SDS011;11972;48.078;11.876;2022-12-18T02:42:41;39.70;;;20.67;;
23588;SDS011;11972;48.078;11.876;2022-12-18T02:46:51;39.75;;;20.45;;
23588;SDS011;11972;48.078;11.876;2022-12-18T02:59:21;39.40;;;19.58;;
23588;SDS011;11972;48.078;11.876;2022-12-18T03:03:32;45.58;;;22.45;;
23588;SDS011;11972;48.078;11.876;2022-12-18T03:11:56;40.10;;;20.17;;
23588;SDS011;11972;48.078;11.876;2022-12-18T03:16:25;44.38;;;21.65;;
23588;SDS011;11972;48.078;11.876;2022-12-18T03:20:29;41.03;;;21.13;;
23588;SDS011;11972;48.078;11.876;2022-12-18T03:24:33;38.65;;;20.23;;
23588;SDS011;11972;48.078;11.876;2022-12-18T03:28:40;39.40;;;20.20;;
23588;SDS011;11972;48.078;11.876;2022-12-18T03:32:51;38.10;;;19.63;;
23588;SDS011;11972;48.078;11.876;2022-12-18T03:36:56;45.30;;;20.75;;
23588;SDS011;11972;48.078;11.876;2022-12-18T03:45:18;40.03;;;21.08;;
23588;SDS011;11972;48.078;11.876;2022-12-18T03:49:28;42.17;;;20.95;;
23588;SDS011;11972;48.078;11.876;2022-12-18T03:57:50;37.95;;;19.50;;
23588;SDS011;11972;48.078;11.876;2022-12-18T04:01:53;42.50;;;20.45;;
23588;SDS011;11972;48.078;11.876;2022-12-18T04:05:55;38.42;;;19.55;;
23588;SDS011;11972;48.078;11.876;2022-12-18T04:09:59;39.63;;;20.40;;
23588;SDS011;11972;48.078;11.876;2022-12-18T04:14:02;42.85;;;21.08;;
23588;SDS011;11972;48.078;11.876;2022-12-18T04:18:02;39.25;;;19.92;;
23588;SDS011;11972;48.078;11.876;2022-12-18T04:22:03;37.53;;;18.67;;
23588;SDS011;11972;48.078;11.876;2022-12-18T04:26:03;38.28;;;18.38;;
23588;SDS011;11972;48.078;11.876;2022-12-18T04:30:04;36.25;;;19.00;;
23588;SDS011;11972;48.078;11.876;2022-12-18T04:34:05;38.92;;;19.05;;
23588;SDS011;11972;48.078;11.876;2022-12-18T04:38:06;35.17;;;18.67;;
23588;SDS011;11972;48.078;11.876;2022-12-18T04:42:08;34.33;;;18.92;;
23588;SDS011;11972;48.078;11.876;2022-12-18T04:46:08;40.47;;;19.63;;
23588;SDS011;11972;48.078;11.876;2022-12-18T04:50:09;41.35;;;20.10;;
23588;SDS011;11972;48.078;11.876;2022-12-18T04:54:09;37.55;;;19.75;;
23588;SDS011;11972;48.078;11.876;2022-12-18T04:58:09;46.75;;;21.88;;
23588;SDS011;11972;48.078;11.876;2022-12-18T05:02:10;37.28;;;18.58;;
23588;SDS011;11972;48.078;11.876;2022-12-18T05:06:10;40.65;;;19.98;;
23588;SDS011;11972;48.078;11.876;2022-12-18T05:10:11;34.38;;;17.55;;
23588;SDS011;11972;48.078;11.876;2022-12-18T05:14:11;35.67;;;18.10;;
23588;SDS011;11972;48.078;11.876;2022-12-18T05:18:11;35.85;;;17.17;;
23588;SDS011;11972;48.078;11.876;2022-12-18T05:22:12;35.50;;;17.30;;
23588;SDS011;11972;48.078;11.876;2022-12-18T05:26:14;31.58;;;16.90;;
23588;SDS011;11972;48.078;11.876;2022-12-18T05:30:16;31.70;;;16.77;;
23588;SDS011;11972;48.078;11.876;2022-12-18T05:34:17;32.80;;;16.48;;
23588;SDS011;11972;48.078;11.876;2022-12-18T05:38:18;31.80;;;16.50;;
23588;SDS011;11972;48.078;11.876;2022-12-18T05:42:19;30.20;;;16.08;;
23588;SDS011;11972;48.078;11.876;2022-12-18T05:46:19;31.45;;;16.45;;
23588;SDS011;11972;48.078;11.876;2022-12-18T05:50:19;30.90;;;15.68;;
23588;SDS011;11972;48.078;11.876;2022-12-18T05:54:20;31.38;;;16.38;;
23588;SDS011;11972;48.078;11.876;2022-12-18T05:58:20;32.33;;;15.40;;
23588;SDS011;11972;48.078;11.876;2022-12-18T06:02:20;30.23;;;16.83;;
23588;SDS011;11972;48.078;11.876;2022-12-18T06:06:25;33.55;;;16.40;;
23588;SDS011;11972;48.078;11.876;2022-12-18T06:10:27;33.28;;;16.58;;
23588;SDS011;11972;48.078;11.876;2022-12-18T06:14:28;29.83;;;17.05;;
23588;SDS011;11972;48.078;11.876;2022-12-18T06:18:28;31.63;;;15.90;;
23588;SDS011;11972;48.078;11.876;2022-12-18T06:22:30;30.13;;;15.52;;
23588;SDS011;11972;48.078;11.876;2022-12-18T06:26:31;31.50;;;16.50;;
23588;SDS011;11972;48.078;11.876;2022-12-18T06:30:31;29.08;;;16.35;;
23588;SDS011;11972;48.078;11.876;2022-12-18T06:34:32;29.40;;;15.88;;
23588;SDS011;11972;48.078;11.876;2022-12-18T06:38:33;29.92;;;16.58;;
23588;SDS011;11972;48.078;11.876;2022-12-18T06:42:34;31.75;;;16.73;;
23588;SDS011;11972;48.078;11.876;2022-12-18T06:46:35;33.60;;;16.05;;
23588;SDS011;11972;48.078;11.876;2022-12-18T06:50:35;31.90;;;16.35;;
23588;SDS011;11972;48.078;11.876;2022-12-18T06:54:35;31.98;;;16.92;;
23588;SDS011;11972;48.078;11.876;2022-12-18T06:58:36;32.40;;;15.88;;
23588;SDS011;11972;48.078;11.876;2022-12-18T07:02:40;32.47;;;16.13;;
23588;SDS011;11972;48.078;11.876;2022-12-18T07:06:41;29.52;;;15.60;;
23588;SDS011;11972;48.078;11.876;2022-12-18T07:10:42;33.88;;;16.65;;
23588;SDS011;11972;48.078;11.876;2022-12-18T07:14:43;33.42;;;16.40;;
23588;SDS011;11972;48.078;11.876;2022-12-18T07:18:43;31.58;;;16.27;;
23588;SDS011;11972;48.078;11.876;2022-12-18T07:22:44;32.70;;;16.38;;
23588;SDS011;11972;48.078;11.876;2022-12-18T07:26:47;29.98;;;15.98;;
23588;SDS011;11972;48.078;11.876;2022-12-18T07:30:48;30.45;;;15.85;;
23588;SDS011;11972;48.078;11.876;2022-12-18T07:34:48;29.85;;;14.85;;
23588;SDS011;11972;48.078;11.876;2022-12-18T07:38:49;27.23;;;14.82;;
23588;SDS011;11972;48.078;11.876;2022-12-18T07:42:51;27.95;;;14.50;;
23588;SDS011;11972;48.078;11.876;2022-12-18T07:46:51;25.42;;;14.65;;
23588;SDS011;11972;48.078;11.876;2022-12-18T07:50:52;26.50;;;14.98;;
23588;SDS011;11972;48.078;11.876;2022-12-18T07:54:52;28.15;;;14.93;;
23588;SDS011;11972;48.078;11.876;2022-12-18T07:58:53;31.85;;;16.25;;
23588;SDS011;11972;48.078;11.876;2022-12-18T08:02:53;29.13;;;16.83;;
23588;SDS011;11972;48.078;11.876;2022-12-18T08:06:54;24.48;;;13.93;;
23588;SDS011;11972;48.078;11.876;2022-12-18T08:10:54;27.85;;;14.63;;
23588;SDS011;11972;48.078;11.876;2022-12-18T08:14:55;28.13;;;15.02;;
23588;SDS011;11972;48.078;11.876;2022-12-18T08:18:55;24.58;;;13.35;;
23588;SDS011;11972;48.078;11.876;2022-12-18T08:22:56;24.02;;;13.68;;
23588;SDS011;11972;48.078;11.876;2022-12-18T08:26:58;27.10;;;14.10;;
23588;SDS011;11972;48.078;11.876;2022-12-18T08:30:58;27.92;;;14.13;;
23588;SDS011;11972;48.078;11.876;2022-12-18T08:34:58;23.52;;;13.50;;
23588;SDS011;11972;48.078;11.876;2022-12-18T08:38:59;26.23;;;13.43;;
23588;SDS011;11972;48.078;11.876;2022-12-18T08:42:59;24.25;;;13.32;;
23588;SDS011;11972;48.078;11.876;2022-12-18T08:47:18;27.05;;;12.85;;
23588;SDS011;11972;48.078;11.876;2022-12-18T08:51:19;23.52;;;13.27;;
23588;SDS011;11972;48.078;11.876;2022-12-18T08:55:19;22.88;;;12.27;;
23588;SDS011;11972;48.078;11.876;2022-12-18T08:59:20;20.85;;;12.10;;
23588;SDS011;11972;48.078;11.876;2022-12-18T09:03:21;22.13;;;12.85;;
23588;SDS011;11972;48.078;11.876;2022-12-18T09:07:22;24.92;;;13.75;;
23588;SDS011;11972;48.078;11.876;2022-12-18T09:11:24;25.20;;;13.82;;
23588;SDS011;11972;48.078;11.876;2022-12-18T09:15:26;23.95;;;13.82;;
23588;SDS011;11972;48.078;11.876;2022-12-18T09:19:26;22.73;;;13.25;;
23588;SDS011;11972;48.078;11.876;2022-12-18T09:23:27;24.05;;;13.30;;
23588;SDS011;11972;48.078;11.876;2022-12-18T09:27:27;22.02;;;12.52;;
23588;SDS011;11972;48.078;11.876;2022-12-18T09:31:27;22.52;;;13.00;;
23588;SDS011;11972;48.078;11.876;2022-12-18T09:35:28;23.35;;;13.50;;
23588;SDS011;11972;48.078;11.876;2022-12-18T09:39:28;23.23;;;13.30;;
23588;SDS011;11972;48.078;11.876;2022-12-18T09:43:36;24.58;;;12.50;;
23588;SDS011;11972;48.078;11.876;2022-12-18T09:47:41;24.05;;;13.50;;
23588;SDS011;11972;48.078;11.876;2022-12-18T09:51:45;21.30;;;12.93;;
23588;SDS011;11972;48.078;11.876;2022-12-18T09:55:50;21.45;;;12.35;;
23588;SDS011;11972;48.078;11.876;2022-12-18T09:59:54;23.23;;;13.25;;
23588;SDS011;11972;48.078;11.876;2022-12-18T10:03:58;22.85;;;13.00;;
23588;SDS011;11972;48.078;11.876;2022-12-18T10:08:02;20.70;;;12.43;;
23588;SDS011;11972;48.078;11.876;2022-12-18T10:12:07;25.08;;;13.85;;
23588;SDS011;11972;48.078;11.876;2022-12-18T10:16:17;23.02;;;12.68;;
23588;SDS011;11972;48.078;11.876;2022-12-18T10:28:59;25.50;;;13.27;;
23588;SDS011;11972;48.078;11.876;2022-12-18T10:33:00;23.98;;;13.68;;
23588;SDS011;11972;48.078;11.876;2022-12-18T10:37:03;26.45;;;14.07;;
23588;SDS011;11972;48.078;11.876;2022-12-18T10:41:22;21.85;;;13.07;;
23588;SDS011;11972;48.078;11.876;2022-12-18T10:45:26;26.40;;;14.38;;
23588;SDS011;11972;48.078;11.876;2022-12-18T10:49:27;25.98;;;14.32;;
23588;SDS011;11972;48.078;11.876;2022-12-18T10:53:31;23.95;;;13.63;;
23588;SDS011;11972;48.078;11.876;2022-12-18T10:57:36;22.00;;;12.73;;
23588;SDS011;11972;48.078;11.876;2022-12-18T11:01:49;24.00;;;13.70;;
23588;SDS011;11972;48.078;11.876;2022-12-18T11:06:08;23.63;;;13.40;;
23588;SDS011;11972;48.078;11.876;2022-12-18T11:10:15;20.17;;;11.48;;
23588;SDS011;11972;48.078;11.876;2022-12-18T11:14:24;21.95;;;12.52;;
23588;SDS011;11972;48.078;11.876;2022-12-18T11:18:27;25.17;;;13.80;;
23588;SDS011;11972;48.078;11.876;2022-12-18T11:22:36;21.92;;;12.90;;
23588;SDS011;11972;48.078;11.876;2022-12-18T11:26:38;21.85;;;13.20;;
23588;SDS011;11972;48.078;11.876;2022-12-18T11:30:43;19.17;;;11.85;;
23588;SDS011;11972;48.078;11.876;2022-12-18T11:34:45;21.55;;;13.07;;
23588;SDS011;11972;48.078;11.876;2022-12-18T11:38:48;23.88;;;14.05;;
23588;SDS011;11972;48.078;11.876;2022-12-18T11:42:53;22.58;;;12.75;;
23588;SDS011;11972;48.078;11.876;2022-12-18T11:47:08;20.80;;;12.52;;
23588;SDS011;11972;48.078;11.876;2022-12-18T11:55:14;19.45;;;11.55;;
23588;SDS011;11972;48.078;11.876;2022-12-18T12:03:44;20.77;;;12.40;;
23588;SDS011;11972;48.078;11.876;2022-12-18T12:16:48;23.75;;;13.02;;
23588;SDS011;11972;48.078;11.876;2022-12-18T12:25:33;22.23;;;13.32;;
23588;SDS011;11972;48.078;11.876;2022-12-18T12:33:56;20.25;;;13.18;;
23588;SDS011;11972;48.078;11.876;2022-12-18T12:42:21;22.65;;;13.57;;
23588;SDS011;11972;48.078;11.876;2022-12-18T12:46:51;21.13;;;11.98;;
23588;SDS011;11972;48.078;11.876;2022-12-18T12:50:55;21.67;;;13.57;;
23588;SDS011;11972;48.078;11.876;2022-12-18T12:54:57;26.70;;;14.55;;
23588;SDS011;11972;48.078;11.876;2022-12-18T13:07:41;28.02;;;15.50;;
23588;SDS011;11972;48.078;11.876;2022-12-18T13:11:50;27.88;;;16.13;;
23588;SDS011;11972;48.078;11.876;2022-12-18T13:16:10;28.55;;;16.13;;
23588;SDS011;11972;48.078;11.876;2022-12-18T13:20:11;31.75;;;17.98;;
23588;SDS011;11972;48.078;11.876;2022-12-18T13:32:46;27.80;;;15.48;;
23588;SDS011;11972;48.078;11.876;2022-12-18T13:36:47;28.77;;;15.73;;
23588;SDS011;11972;48.078;11.876;2022-12-18T13:44:49;27.13;;;15.87;;
23588;SDS011;11972;48.078;11.876;2022-12-18T13:53:20;26.90;;;16.05;;
23588;SDS011;11972;48.078;11.876;2022-12-18T13:57:31;24.20;;;14.63;;
23588;SDS011;11972;48.078;11.876;2022-12-18T14:01:32;26.95;;;15.93;;
23588;SDS011;11972;48.078;11.876;2022-12-18T14:05:34;25.77;;;15.40;;
23588;SDS011;11972;48.078;11.876;2022-12-18T14:09:37;26.45;;;14.90;;
23588;SDS011;11972;48.078;11.876;2022-12-18T14:13:42;24.73;;;15.13;;
23588;SDS011;11972;48.078;11.876;2022-12-18T14:17:42;26.77;;;15.20;;
23588;SDS011;11972;48.078;11.876;2022-12-18T14:21:49;26.58;;;15.55;;
23588;SDS011;11972;48.078;11.876;2022-12-18T14:25:51;25.70;;;14.63;;
23588;SDS011;11972;48.078;11.876;2022-12-18T14:29:52;27.65;;;15.45;;
23588;SDS011;11972;48.078;11.876;2022-12-18T14:33:52;26.38;;;15.57;;
23588;SDS011;11972;48.078;11.876;2022-12-18T14:37:53;28.95;;;15.73;;
23588;SDS011;11972;48.078;11.876;2022-12-18T14:42:10;28.67;;;15.00;;
23588;SDS011;11972;48.078;11.876;2022-12-18T14:47:12;25.92;;;15.32;;
23588;SDS011;11972;48.078;11.876;2022-12-18T14:50:53;26.52;;;15.32;;
23588;SDS011;11972;48.078;11.876;2022-12-18T14:54:56;28.02;;;16.17;;
23588;SDS011;11972;48.078;11.876;2022-12-18T14:58:58;24.55;;;14.18;;
23588;SDS011;11972;48.078;11.876;2022-12-18T15:02:59;27.20;;;15.02;;
23588;SDS011;11972;48.078;11.876;2022-12-18T15:07:03;28.45;;;16.73;;
23588;SDS011;11972;48.078;11.876;2022-12-18T15:15:46;29.98;;;15.25;;
23588;SDS011;11972;48.078;11.876;2022-12-18T15:19:48;27.85;;;16.27;;
23588;SDS011;11972;48.078;11.876;2022-12-18T15:23:51;24.58;;;14.45;;
23588;SDS011;11972;48.078;11.876;2022-12-18T15:27:52;31.58;;;17.55;;
23588;SDS011;11972;48.078;11.876;2022-12-18T15:32:03;24.85;;;14.13;;
23588;SDS011;11972;48.078;11.876;2022-12-18T15:36:08;24.35;;;13.35;;
23588;SDS011;11972;48.078;11.876;2022-12-18T15:40:12;25.20;;;13.95;;
23588;SDS011;11972;48.078;11.876;2022-12-18T15:44:21;25.67;;;14.13;;
23588;SDS011;11972;48.078;11.876;2022-12-18T15:48:23;25.35;;;15.13;;
23588;SDS011;11972;48.078;11.876;2022-12-18T15:52:24;30.77;;;16.27;;
23588;SDS011;11972;48.078;11.876;2022-12-18T15:56:26;30.45;;;16.40;;
23588;SDS011;11972;48.078;11.876;2022-12-18T16:00:45;30.55;;;16.92;;
23588;SDS011;11972;48.078;11.876;2022-12-18T16:04:46;30.08;;;16.45;;
23588;SDS011;11972;48.078;11.876;2022-12-18T16:08:46;31.27;;;16.48;;
23588;SDS011;11972;48.078;11.876;2022-12-18T16:12:47;30.70;;;16.42;;
23588;SDS011;11972;48.078;11.876;2022-12-18T16:16:48;35.30;;;18.73;;
23588;SDS011;11972;48.078;11.876;2022-12-18T16:20:50;32.42;;;18.38;;
23588;SDS011;11972;48.078;11.876;2022-12-18T16:24:51;34.75;;;18.50;;
23588;SDS011;11972;48.078;11.876;2022-12-18T16:28:53;32.65;;;17.63;;
23588;SDS011;11972;48.078;11.876;2022-12-18T16:32:53;32.80;;;18.65;;
23588;SDS011;11972;48.078;11.876;2022-12-18T16:36:55;33.55;;;17.60;;
23588;SDS011;11972;48.078;11.876;2022-12-18T16:40:56;34.95;;;18.70;;
23588;SDS011;11972;48.078;11.876;2022-12-18T16:45:15;33.08;;;17.88;;
23588;SDS011;11972;48.078;11.876;2022-12-18T16:49:18;34.58;;;18.35;;
23588;SDS011;11972;48.078;11.876;2022-12-18T16:53:19;34.95;;;18.42;;
23588;SDS011;11972;48.078;11.876;2022-12-18T16:57:20;36.55;;;20.42;;
23588;SDS011;11972;48.078;11.876;2022-12-18T17:01:21;38.47;;;19.70;;
23588;SDS011;11972;48.078;11.876;2022-12-18T17:05:22;41.42;;;20.77;;
23588;SDS011;11972;48.078;11.876;2022-12-18T17:09:22;38.08;;;19.40;;
23588;SDS011;11972;48.078;11.876;2022-12-18T17:13:25;40.53;;;20.35;;
23588;SDS011;11972;48.078;11.876;2022-12-18T17:17:26;35.63;;;18.67;;
23588;SDS011;11972;48.078;11.876;2022-12-18T17:21:26;38.13;;;18.90;;
23588;SDS011;11972;48.078;11.876;2022-12-18T17:25:27;39.25;;;20.52;;
23588;SDS011;11972;48.078;11.876;2022-12-18T17:29:28;62.72;;;27.95;;
23588;SDS011;11972;48.078;11.876;2022-12-18T17:33:28;80.43;;;32.30;;
23588;SDS011;11972;48.078;11.876;2022-12-18T17:37:28;91.70;;;33.47;;
23588;SDS011;11972;48.078;11.876;2022-12-18T17:41:29;50.83;;;23.13;;
23588;SDS011;11972;48.078;11.876;2022-12-18T17:45:30;99.50;;;32.35;;
23588;SDS011;11972;48.078;11.876;2022-12-18T17:49:30;50.28;;;21.98;;
23588;SDS011;11972;48.078;11.876;2022-12-18T17:53:30;44.28;;;21.75;;
23588;SDS011;11972;48.078;11.876;2022-12-18T17:57:31;43.58;;;23.00;;
23588;SDS011;11972;48.078;11.876;2022-12-18T18:01:31;61.70;;;33.05;;
23588;SDS011;11972;48.078;11.876;2022-12-18T18:05:32;42.40;;;22.10;;
23588;SDS011;11972;48.078;11.876;2022-12-18T18:09:32;40.92;;;21.17;;
23588;SDS011;11972;48.078;11.876;2022-12-18T18:13:32;43.75;;;20.73;;
23588;SDS011;11972;48.078;11.876;2022-12-18T18:17:51;39.05;;;19.48;;
23588;SDS011;11972;48.078;11.876;2022-12-18T18:21:52;37.67;;;19.48;;
23588;SDS011;11972;48.078;11.876;2022-12-18T18:25:53;39.40;;;19.48;;
23588;SDS011;11972;48.078;11.876;2022-12-18T18:29:53;38.58;;;19.58;;
23588;SDS011;11972;48.078;11.876;2022-12-18T18:33:54;40.92;;;19.85;;
23588;SDS011;11972;48.078;11.876;2022-12-18T18:37:54;39.65;;;19.58;;
23588;SDS011;11972;48.078;11.876;2022-12-18T18:41:55;36.42;;;18.88;;
23588;SDS011;11972;48.078;11.876;2022-12-18T18:45:59;36.75;;;18.50;;
23588;SDS011;11972;48.078;11.876;2022-12-18T18:50:01;34.33;;;17.95;;
23588;SDS011;11972;48.078;11.876;2022-12-18T18:54:02;33.05;;;17.45;;
23588;SDS011;11972;48.078;11.876;2022-12-18T18:58:02;39.58;;;19.95;;
23588;SDS011;11972;48.078;11.876;2022-12-18T19:02:02;39.15;;;18.98;;
23588;SDS011;11972;48.078;11.876;2022-12-18T19:06:03;39.70;;;20.25;;
23588;SDS011;11972;48.078;11.876;2022-12-18T19:10:05;43.10;;;20.58;;
23588;SDS011;11972;48.078;11.876;2022-12-18T19:14:08;41.80;;;20.33;;
23588;SDS011;11972;48.078;11.876;2022-12-18T19:18:10;42.63;;;19.90;;
23588;SDS011;11972;48.078;11.876;2022-12-18T19:22:10;40.70;;;19.30;;
23588;SDS011;11972;48.078;11.876;2022-12-18T19:26:10;37.85;;;18.45;;
23588;SDS011;11972;48.078;11.876;2022-12-18T19:30:11;34.13;;;17.67;;
23588;SDS011;11972;48.078;11.876;2022-12-18T19:34:11;34.03;;;17.38;;
23588;SDS011;11972;48.078;11.876;2022-12-18T19:38:12;38.75;;;19.73;;
23588;SDS011;11972;48.078;11.876;2022-12-18T19:42:12;44.90;;;21.88;;
23588;SDS011;11972;48.078;11.876;2022-12-18T19:46:14;46.72;;;20.50;;
23588;SDS011;11972;48.078;11.876;2022-12-18T19:50:16;53.20;;;22.98;;
23588;SDS011;11972;48.078;11.876;2022-12-18T19:54:17;66.20;;;28.50;;
23588;SDS011;11972;48.078;11.876;2022-12-18T19:58:17;64.32;;;26.60;;
23588;SDS011;11972;48.078;11.876;2022-12-18T20:02:17;48.60;;;23.02;;
23588;SDS011;11972;48.078;11.876;2022-12-18T20:10:28;47.80;;;21.23;;
23588;SDS011;11972;48.078;11.876;2022-12-18T20:14:28;37.83;;;18.90;;
23588;SDS011;11972;48.078;11.876;2022-12-18T20:18:28;42.80;;;20.02;;
23588;SDS011;11972;48.078;11.876;2022-12-18T20:22:29;40.80;;;20.17;;
23588;SDS011;11972;48.078;11.876;2022-12-18T20:26:29;46.33;;;21.77;;
23588;SDS011;11972;48.078;11.876;2022-12-18T20:30:30;38.40;;;19.13;;
23588;SDS011;11972;48.078;11.876;2022-12-18T20:34:30;38.67;;;19.27;;
23588;SDS011;11972;48.078;11.876;2022-12-18T20:38:31;41.92;;;21.33;;
23588;SDS011;11972;48.078;11.876;2022-12-18T20:42:32;37.70;;;18.65;;
23588;SDS011;11972;48.078;11.876;2022-12-18T20:46:32;40.88;;;20.05;;
23588;SDS011;11972;48.078;11.876;2022-12-18T20:50:33;37.47;;;19.10;;
23588;SDS011;11972;48.078;11.876;2022-12-18T20:54:33;42.85;;;21.42;;
23588;SDS011;11972;48.078;11.876;2022-12-18T20:58:33;39.00;;;21.10;;
23588;SDS011;11972;48.078;11.876;2022-12-18T21:02:35;41.00;;;21.10;;
23588;SDS011;11972;48.078;11.876;2022-12-18T21:06:35;43.13;;;21.25;;
23588;SDS011;11972;48.078;11.876;2022-12-18T21:10:35;39.60;;;20.38;;
23588;SDS011;11972;48.078;11.876;2022-12-18T21:14:36;38.38;;;19.63;;
23588;SDS011;11972;48.078;11.876;2022-12-18T21:18:36;41.20;;;20.13;;
23588;SDS011;11972;48.078;11.876;2022-12-18T21:22:36;42.63;;;20.08;;
23588;SDS011;11972;48.078;11.876;2022-12-18T21:26:37;42.35;;;19.98;;
23588;SDS011;11972;48.078;11.876;2022-12-18T21:30:39;36.67;;;18.63;;
23588;SDS011;11972;48.078;11.876;2022-12-18T21:34:39;36.83;;;18.70;;
23588;SDS011;11972;48.078;11.876;2022-12-18T21:38:39;35.17;;;17.70;;
23588;SDS011;11972;48.078;11.876;2022-12-18T21:42:40;30.90;;;17.63;;
23588;SDS011;11972;48.078;11.876;2022-12-18T21:46:58;30.05;;;16.52;;
23588;SDS011;11972;48.078;11.876;2022-12-18T21:50:59;34.45;;;17.20;;
23588;SDS011;11972;48.078;11.876;2022-12-18T21:55:00;28.95;;;16.17;;
23588;SDS011;11972;48.078;11.876;2022-12-18T21:59:01;31.33;;;16.75;;
23588;SDS011;11972;48.078;11.876;2022-12-18T22:03:01;30.80;;;17.23;;
23588;SDS011;11972;48.078;11.876;2022-12-18T22:07:02;30.58;;;17.73;;
23588;SDS011;11972;48.078;11.876;2022-12-18T22:11:04;34.33;;;17.20;;
23588;SDS011;11972;48.078;11.876;2022-12-18T22:15:04;32.22;;;17.10;;
23588;SDS011;11972;48.078;11.876;2022-12-18T22:19:05;31.85;;;17.30;;
23588;SDS011;11972;48.078;11.876;2022-12-18T22:23:06;32.45;;;16.70;;
23588;SDS011;11972;48.078;11.876;2022-12-18T22:27:08;34.88;;;17.88;;
23588;SDS011;11972;48.078;11.876;2022-12-18T22:31:08;34.78;;;17.40;;
23588;SDS011;11972;48.078;11.876;2022-12-18T22:35:08;35.15;;;17.38;;
23588;SDS011;11972;48.078;11.876;2022-12-18T22:39:13;36.35;;;18.35;;
23588;SDS011;11972;48.078;11.876;2022-12-18T22:43:17;37.83;;;18.60;;
23588;SDS011;11972;48.078;11.876;2022-12-18T22:47:18;36.33;;;18.17;;
23588;SDS011;11972;48.078;11.876;2022-12-18T22:51:18;38.15;;;18.48;;
23588;SDS011;11972;48.078;11.876;2022-12-18T22:55:19;33.58;;;17.90;;
23588;SDS011;11972;48.078;11.876;2022-12-18T22:59:20;36.05;;;18.58;;
23588;SDS011;11972;48.078;11.876;2022-12-18T23:03:21;36.45;;;18.40;;
23588;SDS011;11972;48.078;11.876;2022-12-18T23:07:22;37.92;;;18.88;;
23588;SDS011;11972;48.078;11.876;2022-12-18T23:11:22;37.55;;;19.10;;
23588;SDS011;11972;48.078;11.876;2022-12-18T23:15:24;37.25;;;18.58;;
23588;SDS011;11972;48.078;11.876;2022-12-18T23:19:24;37.63;;;19.35;;
23588;SDS011;11972;48.078;11.876;2022-12-18T23:23:25;32.03;;;17.02;;
23588;SDS011;11972;48.078;11.876;2022-12-18T23:27:25;33.35;;;17.73;;
23588;SDS011;11972;48.078;11.876;2022-12-18T23:31:27;33.10;;;17.70;;
23588;SDS011;11972;48.078;11.876;2022-12-18T23:35:29;32.08;;;18.15;;
23588;SDS011;11972;48.078;11.876;2022-12-18T23:39:29;32.60;;;17.63;;
23588;SDS011;11972;48.078;11.876;2022-12-18T23:43:30;31.67;;;18.15;;
23588;SDS011;11972;48.078;11.876;2022-12-18T23:47:30;32.10;;;18.95;;
23588;SDS011;11972;48.078;11.876;2022-12-18T23:51:31;31.85;;;16.58;;
23588;SDS011;11972;48.078;11.876;2022-12-18T23:55:35;29.08;;;16.90;;
23588;SDS011;11972;48.078;11.876;2022-12-18T23:59:38;32.33;;;17.77;;
